Main page
METAR-TAF:

METAR-TAF

Airports :

Menorca Airport

Minorca, Spain

latitude: 39-52N, longitude: 004-14E, elevation: 87 m

Current weather observation

The report was made 21 minutes ago, at 22:30 UTC
Wind 4 kt from the West
Temperature 12°C
Humidity 94%
Pressure 1021 hPa
Visibility 10 km or more
no clouds below 1500 m and no cumulonimbus

METAR: LEMH 272230Z AUTO 26004KT CAVOK 12/11 Q1021

Time: 23:51 (22:51 UTC)

Forecast

The report was made 2 hours and 51 minutes ago, at 20:00 UTC
Forecast valid from 27 at 21 UTC to 28 at 21 UTC
Wind 3 kt from variable directions
Visibility 10 km or more
Few clouds at a height of 3000 ft
Becoming
from 28 at 00 UTC to 28 at 02 UTC
Wind 10 kt from the West/Southwest
Probability 40% :
Temporary
from 28 at 00 UTC to 28 at 09 UTC
Visibility: 3000 m
Broken clouds at a height of 800 ft
mist

TAF: LEMH 272000Z 2721/2821 VRB03KT 9999 FEW030 TX18/2812Z TN10/2806Z BECMG 2800/2802 25010KT PROB40 TEMPO 2800/2809 3000 BR BKN008

Weather observations and forecasts of more than 4000 airports (METAR and TAF reports).

The available stations are represented by yellow and red dots on the map.

Hover mouse over dot to see the name of the station.

Then click to see weather observations and forecasts.

To change the map : click on the green buttons with a black cross to zoom in, on the green button with a dash to zoom out, or on the green arrows for adjacent maps.


METAR-TAF: